sensor_id;sensor_type;location;lat;lon;timestamp;P1;durP1;ratioP1;P2;durP2;ratioP2
8640;SDS011;4358;42.100;25.222;2023-03-01T00:01:17;3.23;;;1.23;;
8640;SDS011;4358;42.100;25.222;2023-03-01T00:03:46;1.00;;;0.80;;
8640;SDS011;4358;42.100;25.222;2023-03-01T00:06:13;2.10;;;1.37;;
8640;SDS011;4358;42.100;25.222;2023-03-01T00:08:41;1.83;;;1.50;;
8640;SDS011;4358;42.100;25.222;2023-03-01T00:11:09;2.17;;;1.90;;
8640;SDS011;4358;42.100;25.222;2023-03-01T00:13:38;3.13;;;2.43;;
8640;SDS011;4358;42.100;25.222;2023-03-01T00:16:07;4.63;;;2.87;;
8640;SDS011;4358;42.100;25.222;2023-03-01T00:18:36;3.97;;;2.03;;
8640;SDS011;4358;42.100;25.222;2023-03-01T00:21:03;1.97;;;1.77;;
8640;SDS011;4358;42.100;25.222;2023-03-01T00:23:30;1.20;;;1.10;;
8640;SDS011;4358;42.100;25.222;2023-03-01T00:25:57;1.20;;;1.10;;
8640;SDS011;4358;42.100;25.222;2023-03-01T00:28:24;1.40;;;1.30;;
8640;SDS011;4358;42.100;25.222;2023-03-01T00:30:51;0.80;;;0.80;;
8640;SDS011;4358;42.100;25.222;2023-03-01T00:33:19;0.90;;;0.90;;
8640;SDS011;4358;42.100;25.222;2023-03-01T00:35:46;1.33;;;1.20;;
8640;SDS011;4358;42.100;25.222;2023-03-01T00:38:13;1.47;;;1.37;;
8640;SDS011;4358;42.100;25.222;2023-03-01T00:40:39;1.50;;;1.37;;
8640;SDS011;4358;42.100;25.222;2023-03-01T00:43:06;1.90;;;1.50;;
8640;SDS011;4358;42.100;25.222;2023-03-01T00:45:33;3.73;;;1.80;;
8640;SDS011;4358;42.100;25.222;2023-03-01T00:48:00;1.77;;;1.40;;
8640;SDS011;4358;42.100;25.222;2023-03-01T00:50:28;1.63;;;1.37;;
8640;SDS011;4358;42.100;25.222;2023-03-01T00:52:55;1.57;;;1.47;;
8640;SDS011;4358;42.100;25.222;2023-03-01T00:55:22;1.77;;;1.40;;
8640;SDS011;4358;42.100;25.222;2023-03-01T00:57:50;2.27;;;1.50;;
8640;SDS011;4358;42.100;25.222;2023-03-01T01:00:18;2.13;;;1.70;;
8640;SDS011;4358;42.100;25.222;2023-03-01T01:02:46;2.50;;;2.03;;
8640;SDS011;4358;42.100;25.222;2023-03-01T01:05:13;2.87;;;2.53;;
8640;SDS011;4358;42.100;25.222;2023-03-01T01:07:41;2.27;;;2.00;;
8640;SDS011;4358;42.100;25.222;2023-03-01T01:10:08;1.80;;;1.40;;
8640;SDS011;4358;42.100;25.222;2023-03-01T01:12:38;2.03;;;1.83;;
8640;SDS011;4358;42.100;25.222;2023-03-01T01:15:05;2.20;;;1.70;;
8640;SDS011;4358;42.100;25.222;2023-03-01T01:17:32;1.83;;;1.67;;
8640;SDS011;4358;42.100;25.222;2023-03-01T01:19:59;1.80;;;1.67;;
8640;SDS011;4358;42.100;25.222;2023-03-01T01:22:26;1.57;;;1.23;;
8640;SDS011;4358;42.100;25.222;2023-03-01T01:24:54;1.10;;;1.00;;
8640;SDS011;4358;42.100;25.222;2023-03-01T01:27:21;1.67;;;1.33;;
8640;SDS011;4358;42.100;25.222;2023-03-01T01:29:47;1.80;;;1.70;;
8640;SDS011;4358;42.100;25.222;2023-03-01T01:32:14;1.50;;;1.40;;
8640;SDS011;4358;42.100;25.222;2023-03-01T01:34:41;2.93;;;1.90;;
8640;SDS011;4358;42.100;25.222;2023-03-01T01:37:08;3.53;;;2.37;;
8640;SDS011;4358;42.100;25.222;2023-03-01T01:39:34;3.57;;;3.23;;
8640;SDS011;4358;42.100;25.222;2023-03-01T01:42:03;2.73;;;2.27;;
8640;SDS011;4358;42.100;25.222;2023-03-01T01:44:29;2.27;;;2.07;;
8640;SDS011;4358;42.100;25.222;2023-03-01T01:46:57;2.47;;;2.07;;
8640;SDS011;4358;42.100;25.222;2023-03-01T01:49:29;2.00;;;1.53;;
8640;SDS011;4358;42.100;25.222;2023-03-01T01:52:00;2.40;;;2.20;;
8640;SDS011;4358;42.100;25.222;2023-03-01T01:54:36;3.93;;;2.27;;
8640;SDS011;4358;42.100;25.222;2023-03-01T01:57:09;2.00;;;1.60;;
8640;SDS011;4358;42.100;25.222;2023-03-01T01:59:39;1.63;;;1.53;;
8640;SDS011;4358;42.100;25.222;2023-03-01T02:02:09;1.30;;;1.20;;
8640;SDS011;4358;42.100;25.222;2023-03-01T02:04:36;2.50;;;1.30;;
8640;SDS011;4358;42.100;25.222;2023-03-01T02:07:03;1.30;;;1.20;;
8640;SDS011;4358;42.100;25.222;2023-03-01T02:09:37;1.47;;;1.33;;
8640;SDS011;4358;42.100;25.222;2023-03-01T02:12:04;1.50;;;1.40;;
8640;SDS011;4358;42.100;25.222;2023-03-01T02:14:33;2.97;;;2.40;;
8640;SDS011;4358;42.100;25.222;2023-03-01T02:17:00;3.30;;;2.97;;
8640;SDS011;4358;42.100;25.222;2023-03-01T02:19:31;4.40;;;3.60;;
8640;SDS011;4358;42.100;25.222;2023-03-01T02:22:10;3.63;;;3.23;;
8640;SDS011;4358;42.100;25.222;2023-03-01T02:24:47;3.67;;;2.60;;
8640;SDS011;4358;42.100;25.222;2023-03-01T02:27:23;4.40;;;2.30;;
8640;SDS011;4358;42.100;25.222;2023-03-01T02:29:57;2.10;;;1.83;;
8640;SDS011;4358;42.100;25.222;2023-03-01T02:32:24;2.43;;;1.97;;
8640;SDS011;4358;42.100;25.222;2023-03-01T02:34:50;1.70;;;1.30;;
8640;SDS011;4358;42.100;25.222;2023-03-01T02:37:18;1.77;;;1.60;;
8640;SDS011;4358;42.100;25.222;2023-03-01T02:39:50;1.50;;;1.20;;
8640;SDS011;4358;42.100;25.222;2023-03-01T02:42:26;2.00;;;1.40;;
8640;SDS011;4358;42.100;25.222;2023-03-01T02:44:58;1.53;;;1.33;;
8640;SDS011;4358;42.100;25.222;2023-03-01T02:47:24;1.60;;;1.50;;
8640;SDS011;4358;42.100;25.222;2023-03-01T02:49:51;1.77;;;1.33;;
8640;SDS011;4358;42.100;25.222;2023-03-01T02:52:30;3.20;;;1.50;;
8640;SDS011;4358;42.100;25.222;2023-03-01T02:55:08;1.87;;;1.40;;
8640;SDS011;4358;42.100;25.222;2023-03-01T02:57:37;1.93;;;1.53;;
8640;SDS011;4358;42.100;25.222;2023-03-01T03:00:09;2.07;;;1.60;;
8640;SDS011;4358;42.100;25.222;2023-03-01T03:02:44;2.50;;;1.70;;
8640;SDS011;4358;42.100;25.222;2023-03-01T03:05:12;2.53;;;1.73;;
8640;SDS011;4358;42.100;25.222;2023-03-01T03:07:40;3.23;;;1.33;;
8640;SDS011;4358;42.100;25.222;2023-03-01T03:10:09;5.83;;;1.50;;
8640;SDS011;4358;42.100;25.222;2023-03-01T03:12:39;2.70;;;1.20;;
8640;SDS011;4358;42.100;25.222;2023-03-01T03:15:08;1.40;;;1.30;;
8640;SDS011;4358;42.100;25.222;2023-03-01T03:17:38;1.93;;;1.20;;
8640;SDS011;4358;42.100;25.222;2023-03-01T03:20:06;1.03;;;0.93;;
8640;SDS011;4358;42.100;25.222;2023-03-01T03:22:37;2.10;;;1.87;;
8640;SDS011;4358;42.100;25.222;2023-03-01T03:25:04;1.43;;;1.30;;
8640;SDS011;4358;42.100;25.222;2023-03-01T03:27:35;1.43;;;1.30;;
8640;SDS011;4358;42.100;25.222;2023-03-01T03:30:03;2.87;;;1.60;;
8640;SDS011;4358;42.100;25.222;2023-03-01T03:32:35;4.10;;;2.10;;
8640;SDS011;4358;42.100;25.222;2023-03-01T03:35:02;2.13;;;1.83;;
8640;SDS011;4358;42.100;25.222;2023-03-01T03:37:35;2.50;;;2.13;;
8640;SDS011;4358;42.100;25.222;2023-03-01T03:40:19;3.00;;;2.00;;
8640;SDS011;4358;42.100;25.222;2023-03-01T03:42:46;1.50;;;1.40;;
8640;SDS011;4358;42.100;25.222;2023-03-01T03:45:30;1.60;;;1.50;;
8640;SDS011;4358;42.100;25.222;2023-03-01T03:47:59;3.17;;;2.37;;
8640;SDS011;4358;42.100;25.222;2023-03-01T03:50:26;2.43;;;2.00;;
8640;SDS011;4358;42.100;25.222;2023-03-01T03:52:53;2.97;;;2.10;;
8640;SDS011;4358;42.100;25.222;2023-03-01T03:55:20;2.37;;;2.10;;
8640;SDS011;4358;42.100;25.222;2023-03-01T04:00:34;2.27;;;1.87;;
8640;SDS011;4358;42.100;25.222;2023-03-01T04:03:04;1.70;;;1.60;;
8640;SDS011;4358;42.100;25.222;2023-03-01T04:05:32;2.40;;;2.20;;
8640;SDS011;4358;42.100;25.222;2023-03-01T04:07:59;2.93;;;2.30;;
8640;SDS011;4358;42.100;25.222;2023-03-01T04:10:29;2.27;;;2.07;;
8640;SDS011;4358;42.100;25.222;2023-03-01T04:12:57;2.10;;;1.90;;
8640;SDS011;4358;42.100;25.222;2023-03-01T04:15:25;2.67;;;2.20;;
8640;SDS011;4358;42.100;25.222;2023-03-01T04:17:53;1.30;;;1.20;;
8640;SDS011;4358;42.100;25.222;2023-03-01T04:20:23;1.70;;;1.60;;
8640;SDS011;4358;42.100;25.222;2023-03-01T04:22:52;1.70;;;1.60;;
8640;SDS011;4358;42.100;25.222;2023-03-01T04:25:23;1.90;;;1.40;;
8640;SDS011;4358;42.100;25.222;2023-03-01T04:27:50;2.00;;;1.80;;
8640;SDS011;4358;42.100;25.222;2023-03-01T04:30:17;1.77;;;1.63;;
8640;SDS011;4358;42.100;25.222;2023-03-01T04:32:44;2.37;;;1.60;;
8640;SDS011;4358;42.100;25.222;2023-03-01T04:35:11;1.97;;;1.83;;
8640;SDS011;4358;42.100;25.222;2023-03-01T04:37:39;2.17;;;1.93;;
8640;SDS011;4358;42.100;25.222;2023-03-01T04:40:07;2.00;;;1.90;;
8640;SDS011;4358;42.100;25.222;2023-03-01T04:42:41;3.10;;;2.80;;
8640;SDS011;4358;42.100;25.222;2023-03-01T04:45:08;3.47;;;3.10;;
8640;SDS011;4358;42.100;25.222;2023-03-01T04:47:38;1.90;;;1.77;;
8640;SDS011;4358;42.100;25.222;2023-03-01T04:50:06;2.30;;;2.10;;
8640;SDS011;4358;42.100;25.222;2023-03-01T04:52:34;4.17;;;2.50;;
8640;SDS011;4358;42.100;25.222;2023-03-01T04:55:02;3.00;;;2.47;;
8640;SDS011;4358;42.100;25.222;2023-03-01T04:57:30;1.73;;;1.63;;
8640;SDS011;4358;42.100;25.222;2023-03-01T04:59:58;2.80;;;2.10;;
8640;SDS011;4358;42.100;25.222;2023-03-01T05:02:24;1.60;;;1.50;;
8640;SDS011;4358;42.100;25.222;2023-03-01T05:04:51;4.43;;;1.60;;
8640;SDS011;4358;42.100;25.222;2023-03-01T05:07:22;1.60;;;1.37;;
8640;SDS011;4358;42.100;25.222;2023-03-01T05:09:51;1.30;;;1.20;;
8640;SDS011;4358;42.100;25.222;2023-03-01T05:12:20;1.43;;;1.00;;
8640;SDS011;4358;42.100;25.222;2023-03-01T05:14:47;2.57;;;1.50;;
8640;SDS011;4358;42.100;25.222;2023-03-01T05:17:16;1.50;;;1.40;;
8640;SDS011;4358;42.100;25.222;2023-03-01T05:19:42;1.70;;;1.50;;
8640;SDS011;4358;42.100;25.222;2023-03-01T05:22:09;2.43;;;1.83;;
8640;SDS011;4358;42.100;25.222;2023-03-01T05:24:36;3.40;;;2.00;;
8640;SDS011;4358;42.100;25.222;2023-03-01T05:27:03;3.80;;;1.80;;
8640;SDS011;4358;42.100;25.222;2023-03-01T05:29:32;2.40;;;2.20;;
8640;SDS011;4358;42.100;25.222;2023-03-01T05:32:00;2.07;;;1.80;;
8640;SDS011;4358;42.100;25.222;2023-03-01T05:34:29;1.47;;;1.37;;
8640;SDS011;4358;42.100;25.222;2023-03-01T05:36:57;5.37;;;1.83;;
8640;SDS011;4358;42.100;25.222;2023-03-01T05:39:24;2.13;;;1.90;;
8640;SDS011;4358;42.100;25.222;2023-03-01T05:41:52;3.53;;;3.23;;
8640;SDS011;4358;42.100;25.222;2023-03-01T05:44:20;4.00;;;3.10;;
8640;SDS011;4358;42.100;25.222;2023-03-01T05:46:48;4.50;;;3.40;;
8640;SDS011;4358;42.100;25.222;2023-03-01T05:49:15;4.60;;;3.30;;
8640;SDS011;4358;42.100;25.222;2023-03-01T05:51:43;3.67;;;3.27;;
8640;SDS011;4358;42.100;25.222;2023-03-01T05:54:14;3.23;;;2.70;;
8640;SDS011;4358;42.100;25.222;2023-03-01T05:56:41;3.23;;;2.70;;
8640;SDS011;4358;42.100;25.222;2023-03-01T05:59:08;9.77;;;3.60;;
8640;SDS011;4358;42.100;25.222;2023-03-01T06:01:35;4.87;;;3.40;;
8640;SDS011;4358;42.100;25.222;2023-03-01T06:04:04;4.23;;;3.33;;
8640;SDS011;4358;42.100;25.222;2023-03-01T06:06:33;4.20;;;3.50;;
8640;SDS011;4358;42.100;25.222;2023-03-01T06:09:02;4.87;;;3.67;;
8640;SDS011;4358;42.100;25.222;2023-03-01T06:11:29;7.90;;;4.57;;
8640;SDS011;4358;42.100;25.222;2023-03-01T06:13:56;4.20;;;3.37;;
8640;SDS011;4358;42.100;25.222;2023-03-01T06:16:23;4.03;;;3.63;;
8640;SDS011;4358;42.100;25.222;2023-03-01T06:18:50;6.20;;;3.87;;
8640;SDS011;4358;42.100;25.222;2023-03-01T06:21:18;5.90;;;3.70;;
8640;SDS011;4358;42.100;25.222;2023-03-01T06:23:45;4.50;;;3.57;;
8640;SDS011;4358;42.100;25.222;2023-03-01T06:26:12;4.60;;;3.23;;
8640;SDS011;4358;42.100;25.222;2023-03-01T06:28:38;3.97;;;3.00;;
8640;SDS011;4358;42.100;25.222;2023-03-01T06:31:05;4.23;;;3.50;;
8640;SDS011;4358;42.100;25.222;2023-03-01T06:33:33;5.63;;;3.90;;
8640;SDS011;4358;42.100;25.222;2023-03-01T06:36:01;4.17;;;3.50;;
8640;SDS011;4358;42.100;25.222;2023-03-01T06:38:29;11.10;;;5.30;;
8640;SDS011;4358;42.100;25.222;2023-03-01T06:40:56;5.17;;;3.87;;
8640;SDS011;4358;42.100;25.222;2023-03-01T06:43:23;4.33;;;3.73;;
8640;SDS011;4358;42.100;25.222;2023-03-01T06:45:50;5.00;;;4.07;;
8640;SDS011;4358;42.100;25.222;2023-03-01T06:48:17;4.57;;;3.40;;
8640;SDS011;4358;42.100;25.222;2023-03-01T06:50:44;6.27;;;4.37;;
8640;SDS011;4358;42.100;25.222;2023-03-01T06:53:10;5.10;;;4.00;;
8640;SDS011;4358;42.100;25.222;2023-03-01T06:55:38;7.27;;;4.40;;
8640;SDS011;4358;42.100;25.222;2023-03-01T06:58:05;3.73;;;3.27;;
8640;SDS011;4358;42.100;25.222;2023-03-01T07:00:32;2.67;;;2.47;;
8640;SDS011;4358;42.100;25.222;2023-03-01T07:02:59;3.80;;;3.40;;
8640;SDS011;4358;42.100;25.222;2023-03-01T07:05:27;5.77;;;4.13;;
8640;SDS011;4358;42.100;25.222;2023-03-01T07:07:54;5.80;;;4.30;;
8640;SDS011;4358;42.100;25.222;2023-03-01T07:10:21;3.00;;;2.60;;
8640;SDS011;4358;42.100;25.222;2023-03-01T07:12:50;3.93;;;3.10;;
8640;SDS011;4358;42.100;25.222;2023-03-01T07:15:20;5.03;;;4.50;;
8640;SDS011;4358;42.100;25.222;2023-03-01T07:17:47;7.87;;;5.90;;
8640;SDS011;4358;42.100;25.222;2023-03-01T07:20:16;4.33;;;3.70;;
8640;SDS011;4358;42.100;25.222;2023-03-01T07:22:43;3.97;;;3.27;;
8640;SDS011;4358;42.100;25.222;2023-03-01T07:25:10;4.77;;;3.77;;
8640;SDS011;4358;42.100;25.222;2023-03-01T07:27:37;5.70;;;5.10;;
8640;SDS011;4358;42.100;25.222;2023-03-01T07:30:06;6.10;;;5.40;;
8640;SDS011;4358;42.100;25.222;2023-03-01T07:32:33;7.43;;;4.80;;
8640;SDS011;4358;42.100;25.222;2023-03-01T07:35:01;4.80;;;4.20;;
8640;SDS011;4358;42.100;25.222;2023-03-01T07:37:28;3.33;;;2.90;;
8640;SDS011;4358;42.100;25.222;2023-03-01T07:39:55;4.80;;;3.07;;
8640;SDS011;4358;42.100;25.222;2023-03-01T07:42:22;7.13;;;5.23;;
8640;SDS011;4358;42.100;25.222;2023-03-01T07:44:49;4.60;;;4.10;;
8640;SDS011;4358;42.100;25.222;2023-03-01T07:47:17;3.57;;;3.20;;
8640;SDS011;4358;42.100;25.222;2023-03-01T07:49:44;3.50;;;3.03;;
8640;SDS011;4358;42.100;25.222;2023-03-01T07:52:11;5.17;;;3.53;;
8640;SDS011;4358;42.100;25.222;2023-03-01T07:54:38;4.20;;;3.33;;
8640;SDS011;4358;42.100;25.222;2023-03-01T07:57:05;4.87;;;3.93;;
8640;SDS011;4358;42.100;25.222;2023-03-01T07:59:32;6.20;;;5.00;;
8640;SDS011;4358;42.100;25.222;2023-03-01T08:01:59;4.50;;;4.10;;
8640;SDS011;4358;42.100;25.222;2023-03-01T08:04:27;3.97;;;2.93;;
8640;SDS011;4358;42.100;25.222;2023-03-01T08:06:54;5.20;;;3.10;;
8640;SDS011;4358;42.100;25.222;2023-03-01T08:09:21;4.00;;;3.47;;
8640;SDS011;4358;42.100;25.222;2023-03-01T08:11:48;5.53;;;3.17;;
8640;SDS011;4358;42.100;25.222;2023-03-01T08:14:16;3.83;;;3.00;;
8640;SDS011;4358;42.100;25.222;2023-03-01T08:16:42;4.63;;;3.30;;
8640;SDS011;4358;42.100;25.222;2023-03-01T08:19:10;5.97;;;4.77;;
8640;SDS011;4358;42.100;25.222;2023-03-01T08:21:39;5.77;;;3.73;;
8640;SDS011;4358;42.100;25.222;2023-03-01T08:24:06;6.90;;;4.40;;
8640;SDS011;4358;42.100;25.222;2023-03-01T08:26:35;3.83;;;3.00;;
8640;SDS011;4358;42.100;25.222;2023-03-01T08:29:03;4.70;;;2.73;;
8640;SDS011;4358;42.100;25.222;2023-03-01T08:31:31;5.37;;;2.70;;
8640;SDS011;4358;42.100;25.222;2023-03-01T08:34:01;5.47;;;2.87;;
8640;SDS011;4358;42.100;25.222;2023-03-01T08:36:29;3.33;;;2.60;;
8640;SDS011;4358;42.100;25.222;2023-03-01T08:38:59;5.57;;;3.10;;
8640;SDS011;4358;42.100;25.222;2023-03-01T08:41:27;3.43;;;2.80;;
8640;SDS011;4358;42.100;25.222;2023-03-01T08:43:54;2.50;;;2.30;;
8640;SDS011;4358;42.100;25.222;2023-03-01T08:46:24;2.93;;;2.33;;
8640;SDS011;4358;42.100;25.222;2023-03-01T08:48:51;6.03;;;3.27;;
8640;SDS011;4358;42.100;25.222;2023-03-01T08:51:19;2.70;;;1.97;;
8640;SDS011;4358;42.100;25.222;2023-03-01T08:53:46;3.23;;;2.80;;
8640;SDS011;4358;42.100;25.222;2023-03-01T08:56:16;5.53;;;3.77;;
8640;SDS011;4358;42.100;25.222;2023-03-01T08:58:44;3.10;;;2.80;;
8640;SDS011;4358;42.100;25.222;2023-03-01T09:01:13;3.67;;;2.60;;
8640;SDS011;4358;42.100;25.222;2023-03-01T09:03:41;4.90;;;3.20;;
8640;SDS011;4358;42.100;25.222;2023-03-01T09:06:08;4.33;;;3.53;;
8640;SDS011;4358;42.100;25.222;2023-03-01T09:08:36;3.87;;;2.40;;
8640;SDS011;4358;42.100;25.222;2023-03-01T09:11:05;3.70;;;2.20;;
8640;SDS011;4358;42.100;25.222;2023-03-01T09:13:35;2.50;;;1.77;;
8640;SDS011;4358;42.100;25.222;2023-03-01T09:16:02;1.90;;;1.50;;
8640;SDS011;4358;42.100;25.222;2023-03-01T09:18:30;3.50;;;1.90;;
8640;SDS011;4358;42.100;25.222;2023-03-01T09:21:01;3.40;;;2.20;;
8640;SDS011;4358;42.100;25.222;2023-03-01T09:23:32;2.33;;;1.87;;
8640;SDS011;4358;42.100;25.222;2023-03-01T09:26:01;3.57;;;2.30;;
8640;SDS011;4358;42.100;25.222;2023-03-01T09:28:28;3.70;;;2.20;;
8640;SDS011;4358;42.100;25.222;2023-03-01T09:30:58;3.03;;;2.00;;
8640;SDS011;4358;42.100;25.222;2023-03-01T09:33:25;6.60;;;2.30;;
8640;SDS011;4358;42.100;25.222;2023-03-01T09:35:58;2.93;;;2.30;;
8640;SDS011;4358;42.100;25.222;2023-03-01T09:38:26;2.40;;;2.17;;
8640;SDS011;4358;42.100;25.222;2023-03-01T09:40:53;2.43;;;2.00;;
8640;SDS011;4358;42.100;25.222;2023-03-01T09:43:21;4.70;;;2.57;;
8640;SDS011;4358;42.100;25.222;2023-03-01T09:45:55;3.47;;;2.50;;
8640;SDS011;4358;42.100;25.222;2023-03-01T09:48:33;5.67;;;3.30;;
8640;SDS011;4358;42.100;25.222;2023-03-01T09:51:06;4.67;;;3.47;;
8640;SDS011;4358;42.100;25.222;2023-03-01T09:53:41;4.20;;;3.17;;
8640;SDS011;4358;42.100;25.222;2023-03-01T09:56:11;6.50;;;3.33;;
8640;SDS011;4358;42.100;25.222;2023-03-01T09:58:47;6.90;;;4.13;;
8640;SDS011;4358;42.100;25.222;2023-03-01T10:01:24;6.20;;;3.53;;
8640;SDS011;4358;42.100;25.222;2023-03-01T10:04:01;8.27;;;6.03;;
8640;SDS011;4358;42.100;25.222;2023-03-01T10:06:39;9.27;;;4.90;;
8640;SDS011;4358;42.100;25.222;2023-03-01T10:09:15;4.90;;;4.00;;
8640;SDS011;4358;42.100;25.222;2023-03-01T10:11:44;4.37;;;3.93;;
8640;SDS011;4358;42.100;25.222;2023-03-01T10:14:15;4.67;;;3.40;;
8640;SDS011;4358;42.100;25.222;2023-03-01T10:16:52;4.43;;;3.40;;
8640;SDS011;4358;42.100;25.222;2023-03-01T10:19:24;3.53;;;3.00;;
8640;SDS011;4358;42.100;25.222;2023-03-01T10:21:56;3.67;;;3.20;;
8640;SDS011;4358;42.100;25.222;2023-03-01T10:24:26;7.23;;;5.60;;
8640;SDS011;4358;42.100;25.222;2023-03-01T10:26:59;9.23;;;5.67;;
8640;SDS011;4358;42.100;25.222;2023-03-01T10:29:31;10.50;;;6.83;;
8640;SDS011;4358;42.100;25.222;2023-03-01T10:32:05;12.00;;;6.53;;
8640;SDS011;4358;42.100;25.222;2023-03-01T10:34:33;5.90;;;4.20;;
8640;SDS011;4358;42.100;25.222;2023-03-01T10:37:01;6.00;;;5.03;;
8640;SDS011;4358;42.100;25.222;2023-03-01T10:39:36;4.33;;;3.93;;
8640;SDS011;4358;42.100;25.222;2023-03-01T10:42:04;6.27;;;4.30;;
8640;SDS011;4358;42.100;25.222;2023-03-01T10:44:43;7.23;;;4.40;;
8640;SDS011;4358;42.100;25.222;2023-03-01T10:47:16;7.77;;;5.43;;
8640;SDS011;4358;42.100;25.222;2023-03-01T10:49:56;8.83;;;6.37;;
8640;SDS011;4358;42.100;25.222;2023-03-01T10:52:26;4.73;;;3.50;;
8640;SDS011;4358;42.100;25.222;2023-03-01T10:54:56;6.13;;;3.20;;
8640;SDS011;4358;42.100;25.222;2023-03-01T10:57:27;4.37;;;3.50;;
8640;SDS011;4358;42.100;25.222;2023-03-01T11:00:05;5.90;;;4.47;;
8640;SDS011;4358;42.100;25.222;2023-03-01T11:02:45;4.77;;;3.83;;
8640;SDS011;4358;42.100;25.222;2023-03-01T11:05:19;5.40;;;2.77;;
8640;SDS011;4358;42.100;25.222;2023-03-01T11:07:50;5.87;;;2.60;;
8640;SDS011;4358;42.100;25.222;2023-03-01T11:10:19;3.33;;;2.73;;
8640;SDS011;4358;42.100;25.222;2023-03-01T11:12:50;4.43;;;3.10;;
8640;SDS011;4358;42.100;25.222;2023-03-01T11:15:21;2.70;;;2.50;;
8640;SDS011;4358;42.100;25.222;2023-03-01T11:17:52;3.60;;;2.63;;
8640;SDS011;4358;42.100;25.222;2023-03-01T11:20:22;5.57;;;2.97;;
8640;SDS011;4358;42.100;25.222;2023-03-01T11:22:52;4.97;;;3.03;;
8640;SDS011;4358;42.100;25.222;2023-03-01T11:25:23;4.33;;;2.63;;
8640;SDS011;4358;42.100;25.222;2023-03-01T11:27:51;2.93;;;2.50;;
8640;SDS011;4358;42.100;25.222;2023-03-01T11:30:20;4.63;;;2.80;;
8640;SDS011;4358;42.100;25.222;2023-03-01T11:32:53;4.30;;;2.50;;
8640;SDS011;4358;42.100;25.222;2023-03-01T11:35:29;3.03;;;2.43;;
8640;SDS011;4358;42.100;25.222;2023-03-01T11:38:03;5.03;;;2.53;;
8640;SDS011;4358;42.100;25.222;2023-03-01T11:40:39;3.13;;;2.53;;
8640;SDS011;4358;42.100;25.222;2023-03-01T11:43:12;2.40;;;2.17;;
8640;SDS011;4358;42.100;25.222;2023-03-01T11:45:49;4.90;;;3.07;;
8640;SDS011;4358;42.100;25.222;2023-03-01T11:48:38;6.17;;;3.70;;
8640;SDS011;4358;42.100;25.222;2023-03-01T11:51:19;4.03;;;2.60;;
8640;SDS011;4358;42.100;25.222;2023-03-01T11:53:55;4.83;;;2.80;;
8640;SDS011;4358;42.100;25.222;2023-03-01T11:56:34;4.80;;;2.80;;
8640;SDS011;4358;42.100;25.222;2023-03-01T11:59:12;3.33;;;2.77;;
8640;SDS011;4358;42.100;25.222;2023-03-01T12:02:00;3.63;;;2.67;;
8640;SDS011;4358;42.100;25.222;2023-03-01T12:04:49;4.30;;;2.80;;
8640;SDS011;4358;42.100;25.222;2023-03-01T12:07:29;4.60;;;3.30;;
8640;SDS011;4358;42.100;25.222;2023-03-01T12:10:16;3.37;;;2.70;;
8640;SDS011;4358;42.100;25.222;2023-03-01T12:12:52;5.07;;;2.67;;
8640;SDS011;4358;42.100;25.222;2023-03-01T12:15:43;3.50;;;3.20;;
8640;SDS011;4358;42.100;25.222;2023-03-01T12:21:20;4.67;;;3.87;;
8640;SDS011;4358;42.100;25.222;2023-03-01T12:24:19;4.07;;;3.57;;
8640;SDS011;4358;42.100;25.222;2023-03-01T12:27:00;4.03;;;3.03;;
8640;SDS011;4358;42.100;25.222;2023-03-01T12:29:39;4.63;;;2.90;;
8640;SDS011;4358;42.100;25.222;2023-03-01T12:38:07;4.73;;;3.30;;
8640;SDS011;4358;42.100;25.222;2023-03-01T12:40:51;3.23;;;2.73;;
8640;SDS011;4358;42.100;25.222;2023-03-01T12:43:41;3.60;;;3.00;;
8640;SDS011;4358;42.100;25.222;2023-03-01T12:46:22;4.87;;;3.33;;
8640;SDS011;4358;42.100;25.222;2023-03-01T12:49:02;5.53;;;3.97;;
8640;SDS011;4358;42.100;25.222;2023-03-01T12:51:36;5.40;;;4.33;;
8640;SDS011;4358;42.100;25.222;2023-03-01T12:54:07;4.83;;;4.20;;
8640;SDS011;4358;42.100;25.222;2023-03-01T12:56:41;4.17;;;3.50;;
8640;SDS011;4358;42.100;25.222;2023-03-01T12:59:18;5.73;;;4.00;;
8640;SDS011;4358;42.100;25.222;2023-03-01T13:01:52;6.43;;;4.30;;
8640;SDS011;4358;42.100;25.222;2023-03-01T13:04:26;6.83;;;4.27;;
8640;SDS011;4358;42.100;25.222;2023-03-01T13:07:04;6.20;;;3.93;;
8640;SDS011;4358;42.100;25.222;2023-03-01T13:09:46;6.70;;;4.23;;
8640;SDS011;4358;42.100;25.222;2023-03-01T13:12:42;6.70;;;4.17;;
8640;SDS011;4358;42.100;25.222;2023-03-01T13:15:26;5.60;;;4.30;;
8640;SDS011;4358;42.100;25.222;2023-03-01T13:17:55;5.37;;;4.37;;
8640;SDS011;4358;42.100;25.222;2023-03-01T13:20:24;4.33;;;3.53;;
8640;SDS011;4358;42.100;25.222;2023-03-01T13:23:06;8.30;;;4.37;;
8640;SDS011;4358;42.100;25.222;2023-03-01T13:28:36;9.10;;;4.57;;
8640;SDS011;4358;42.100;25.222;2023-03-01T13:31:06;7.70;;;4.97;;
8640;SDS011;4358;42.100;25.222;2023-03-01T13:33:44;6.93;;;5.90;;
8640;SDS011;4358;42.100;25.222;2023-03-01T13:36:42;6.93;;;5.43;;
8640;SDS011;4358;42.100;25.222;2023-03-01T13:42:25;6.10;;;4.17;;
8640;SDS011;4358;42.100;25.222;2023-03-01T13:45:12;6.90;;;4.37;;
8640;SDS011;4358;42.100;25.222;2023-03-01T13:47:59;7.00;;;4.37;;
8640;SDS011;4358;42.100;25.222;2023-03-01T13:50:32;6.50;;;4.10;;
8640;SDS011;4358;42.100;25.222;2023-03-01T13:53:04;5.03;;;3.67;;
8640;SDS011;4358;42.100;25.222;2023-03-01T13:55:35;6.23;;;4.10;;
8640;SDS011;4358;42.100;25.222;2023-03-01T13:58:05;5.73;;;4.30;;
8640;SDS011;4358;42.100;25.222;2023-03-01T14:00:43;5.80;;;3.87;;
8640;SDS011;4358;42.100;25.222;2023-03-01T14:03:11;5.53;;;3.93;;
8640;SDS011;4358;42.100;25.222;2023-03-01T14:05:41;5.53;;;3.83;;
8640;SDS011;4358;42.100;25.222;2023-03-01T14:08:20;5.53;;;4.13;;
8640;SDS011;4358;42.100;25.222;2023-03-01T14:10:53;5.73;;;3.97;;
8640;SDS011;4358;42.100;25.222;2023-03-01T14:13:40;4.53;;;3.73;;
8640;SDS011;4358;42.100;25.222;2023-03-01T14:16:23;5.50;;;4.80;;
8640;SDS011;4358;42.100;25.222;2023-03-01T14:19:04;7.23;;;4.43;;
8640;SDS011;4358;42.100;25.222;2023-03-01T14:21:42;7.37;;;5.47;;
8640;SDS011;4358;42.100;25.222;2023-03-01T14:24:15;7.70;;;5.10;;
8640;SDS011;4358;42.100;25.222;2023-03-01T14:26:44;7.13;;;5.03;;
8640;SDS011;4358;42.100;25.222;2023-03-01T14:29:23;7.50;;;4.97;;
8640;SDS011;4358;42.100;25.222;2023-03-01T14:31:52;7.00;;;5.70;;
8640;SDS011;4358;42.100;25.222;2023-03-01T14:34:24;5.83;;;4.67;;
8640;SDS011;4358;42.100;25.222;2023-03-01T14:36:51;7.97;;;4.40;;
8640;SDS011;4358;42.100;25.222;2023-03-01T14:39:24;4.80;;;4.07;;
8640;SDS011;4358;42.100;25.222;2023-03-01T14:41:51;5.23;;;4.07;;
8640;SDS011;4358;42.100;25.222;2023-03-01T14:44:19;7.03;;;5.17;;
8640;SDS011;4358;42.100;25.222;2023-03-01T14:46:53;7.30;;;5.27;;
8640;SDS011;4358;42.100;25.222;2023-03-01T14:49:29;7.20;;;4.93;;
8640;SDS011;4358;42.100;25.222;2023-03-01T14:51:58;7.20;;;4.27;;
8640;SDS011;4358;42.100;25.222;2023-03-01T14:54:28;4.87;;;4.23;;
8640;SDS011;4358;42.100;25.222;2023-03-01T14:57:01;5.17;;;4.07;;
8640;SDS011;4358;42.100;25.222;2023-03-01T14:59:28;5.10;;;4.17;;
8640;SDS011;4358;42.100;25.222;2023-03-01T15:01:57;6.33;;;4.40;;
8640;SDS011;4358;42.100;25.222;2023-03-01T15:04:26;7.73;;;5.30;;
8640;SDS011;4358;42.100;25.222;2023-03-01T15:06:55;6.47;;;5.13;;
8640;SDS011;4358;42.100;25.222;2023-03-01T15:09:29;5.47;;;4.50;;
8640;SDS011;4358;42.100;25.222;2023-03-01T15:11:59;8.20;;;5.90;;
8640;SDS011;4358;42.100;25.222;2023-03-01T15:14:38;6.20;;;4.90;;
8640;SDS011;4358;42.100;25.222;2023-03-01T15:17:22;5.80;;;4.30;;
8640;SDS011;4358;42.100;25.222;2023-03-01T15:19:56;6.07;;;4.57;;
8640;SDS011;4358;42.100;25.222;2023-03-01T15:22:24;8.33;;;5.67;;
8640;SDS011;4358;42.100;25.222;2023-03-01T15:24:52;6.50;;;4.70;;
8640;SDS011;4358;42.100;25.222;2023-03-01T15:27:21;7.03;;;4.63;;
8640;SDS011;4358;42.100;25.222;2023-03-01T15:29:50;9.87;;;6.10;;
8640;SDS011;4358;42.100;25.222;2023-03-01T15:32:30;6.67;;;4.93;;
8640;SDS011;4358;42.100;25.222;2023-03-01T15:35:00;4.97;;;4.17;;
8640;SDS011;4358;42.100;25.222;2023-03-01T15:37:47;5.83;;;4.17;;
8640;SDS011;4358;42.100;25.222;2023-03-01T15:40:17;5.93;;;4.40;;